sensor_id;sensor_type;location;lat;lon;timestamp;P1;durP1;ratioP1;P2;durP2;ratioP2
16804;SDS011;8520;50.102;20.010;2024-02-28T16:25:03;62.17;;;56.73;;
16804;SDS011;8520;50.102;20.010;2024-02-28T16:27:33;64.03;;;58.10;;
16804;SDS011;8520;50.102;20.010;2024-02-28T16:30:02;66.30;;;60.27;;
16804;SDS011;8520;50.102;20.010;2024-02-28T16:32:31;66.90;;;60.67;;
16804;SDS011;8520;50.102;20.010;2024-02-28T16:34:59;68.97;;;62.37;;
16804;SDS011;8520;50.102;20.010;2024-02-28T16:37:27;65.13;;;59.00;;
16804;SDS011;8520;50.102;20.010;2024-02-28T16:39:55;66.93;;;60.27;;
16804;SDS011;8520;50.102;20.010;2024-02-28T16:42:25;65.97;;;59.93;;
16804;SDS011;8520;50.102;20.010;2024-02-28T16:44:53;68.00;;;61.87;;
16804;SDS011;8520;50.102;20.010;2024-02-28T16:47:21;69.07;;;62.43;;
16804;SDS011;8520;50.102;20.010;2024-02-28T16:49:50;67.50;;;61.13;;
16804;SDS011;8520;50.102;20.010;2024-02-28T16:52:18;68.80;;;62.30;;
16804;SDS011;8520;50.102;20.010;2024-02-28T16:54:46;72.53;;;65.47;;
16804;SDS011;8520;50.102;20.010;2024-02-28T16:57:15;72.37;;;65.40;;
16804;SDS011;8520;50.102;20.010;2024-02-28T16:59:44;73.63;;;66.23;;
16804;SDS011;8520;50.102;20.010;2024-02-28T17:02:12;77.73;;;69.63;;
16804;SDS011;8520;50.102;20.010;2024-02-28T17:04:40;79.18;;;71.30;;
16804;SDS011;8520;50.102;20.010;2024-02-28T17:07:09;77.73;;;69.83;;
16804;SDS011;8520;50.102;20.010;2024-02-28T17:09:37;79.70;;;71.37;;
16804;SDS011;8520;50.102;20.010;2024-02-28T17:12:06;82.03;;;73.03;;
16804;SDS011;8520;50.102;20.010;2024-02-28T17:14:34;79.67;;;71.57;;
16804;SDS011;8520;50.102;20.010;2024-02-28T17:17:03;82.27;;;73.73;;
16804;SDS011;8520;50.102;20.010;2024-02-28T17:19:31;83.10;;;74.57;;
16804;SDS011;8520;50.102;20.010;2024-02-28T17:21:59;85.77;;;76.83;;
16804;SDS011;8520;50.102;20.010;2024-02-28T17:24:27;86.33;;;77.13;;
16804;SDS011;8520;50.102;20.010;2024-02-28T17:26:56;88.10;;;77.53;;
16804;SDS011;8520;50.102;20.010;2024-02-28T17:29:25;91.10;;;79.20;;
16804;SDS011;8520;50.102;20.010;2024-02-28T17:31:53;96.43;;;81.17;;
16804;SDS011;8520;50.102;20.010;2024-02-28T17:34:23;95.63;;;83.43;;
16804;SDS011;8520;50.102;20.010;2024-02-28T17:36:51;94.43;;;83.83;;
16804;SDS011;8520;50.102;20.010;2024-02-28T17:39:19;101.37;;;86.93;;
16804;SDS011;8520;50.102;20.010;2024-02-28T17:41:48;102.87;;;89.30;;
16804;SDS011;8520;50.102;20.010;2024-02-28T17:44:16;102.70;;;88.43;;
16804;SDS011;8520;50.102;20.010;2024-02-28T17:46:44;102.20;;;88.30;;
16804;SDS011;8520;50.102;20.010;2024-02-28T17:49:12;103.47;;;89.50;;
16804;SDS011;8520;50.102;20.010;2024-02-28T17:51:42;107.30;;;92.87;;
16804;SDS011;8520;50.102;20.010;2024-02-28T17:54:11;111.53;;;93.50;;
16804;SDS011;8520;50.102;20.010;2024-02-28T17:56:39;105.20;;;93.77;;
16804;SDS011;8520;50.102;20.010;2024-02-28T17:59:08;112.63;;;96.87;;
16804;SDS011;8520;50.102;20.010;2024-02-28T18:01:36;114.43;;;97.77;;
16804;SDS011;8520;50.102;20.010;2024-02-28T18:04:04;116.73;;;98.57;;
16804;SDS011;8520;50.102;20.010;2024-02-28T18:06:32;118.57;;;105.37;;
16804;SDS011;8520;50.102;20.010;2024-02-28T18:09:02;134.67;;;111.07;;
16804;SDS011;8520;50.102;20.010;2024-02-28T18:11:31;128.87;;;109.63;;
16804;SDS011;8520;50.102;20.010;2024-02-28T18:14:00;124.30;;;110.57;;
16804;SDS011;8520;50.102;20.010;2024-02-28T18:16:28;125.13;;;111.37;;
16804;SDS011;8520;50.102;20.010;2024-02-28T18:18:56;134.47;;;113.33;;
16804;SDS011;8520;50.102;20.010;2024-02-28T18:21:24;131.40;;;114.43;;
16804;SDS011;8520;50.102;20.010;2024-02-28T18:23:53;129.63;;;114.63;;
16804;SDS011;8520;50.102;20.010;2024-02-28T18:26:22;131.77;;;117.07;;
16804;SDS011;8520;50.102;20.010;2024-02-28T18:28:50;132.70;;;117.00;;
16804;SDS011;8520;50.102;20.010;2024-02-28T18:31:18;133.30;;;118.23;;
16804;SDS011;8520;50.102;20.010;2024-02-28T18:33:46;134.50;;;119.77;;
16804;SDS011;8520;50.102;20.010;2024-02-28T18:36:14;135.30;;;120.60;;
16804;SDS011;8520;50.102;20.010;2024-02-28T18:38:42;141.87;;;122.40;;
16804;SDS011;8520;50.102;20.010;2024-02-28T18:41:10;140.17;;;124.73;;
16804;SDS011;8520;50.102;20.010;2024-02-28T18:43:40;140.47;;;125.07;;
16804;SDS011;8520;50.102;20.010;2024-02-28T18:46:09;139.13;;;124.40;;
16804;SDS011;8520;50.102;20.010;2024-02-28T18:48:39;141.63;;;126.33;;
16804;SDS011;8520;50.102;20.010;2024-02-28T18:51:09;138.30;;;124.07;;
16804;SDS011;8520;50.102;20.010;2024-02-28T18:53:37;142.20;;;127.10;;
16804;SDS011;8520;50.102;20.010;2024-02-28T18:56:08;142.83;;;127.70;;
16804;SDS011;8520;50.102;20.010;2024-02-28T18:58:36;138.20;;;123.83;;
16804;SDS011;8520;50.102;20.010;2024-02-28T19:01:05;138.20;;;124.20;;
16804;SDS011;8520;50.102;20.010;2024-02-28T19:03:34;141.47;;;126.63;;
16804;SDS011;8520;50.102;20.010;2024-02-28T19:06:02;140.53;;;126.23;;
16804;SDS011;8520;50.102;20.010;2024-02-28T19:08:30;144.40;;;129.40;;
16804;SDS011;8520;50.102;20.010;2024-02-28T19:11:00;147.60;;;132.10;;
16804;SDS011;8520;50.102;20.010;2024-02-28T19:13:28;150.37;;;134.00;;
16804;SDS011;8520;50.102;20.010;2024-02-28T19:15:56;146.97;;;131.57;;
16804;SDS011;8520;50.102;20.010;2024-02-28T19:18:27;148.50;;;132.43;;
16804;SDS011;8520;50.102;20.010;2024-02-28T19:20:55;145.33;;;130.03;;
16804;SDS011;8520;50.102;20.010;2024-02-28T19:23:23;147.80;;;130.80;;
16804;SDS011;8520;50.102;20.010;2024-02-28T19:25:51;143.97;;;128.23;;
16804;SDS011;8520;50.102;20.010;2024-02-28T19:28:19;142.30;;;127.03;;
16804;SDS011;8520;50.102;20.010;2024-02-28T19:30:47;145.23;;;129.43;;
16804;SDS011;8520;50.102;20.010;2024-02-28T19:33:16;143.87;;;128.57;;
16804;SDS011;8520;50.102;20.010;2024-02-28T19:35:46;142.07;;;127.07;;
16804;SDS011;8520;50.102;20.010;2024-02-28T19:38:14;143.53;;;128.23;;
16804;SDS011;8520;50.102;20.010;2024-02-28T19:40:42;145.63;;;129.87;;
16804;SDS011;8520;50.102;20.010;2024-02-28T19:43:10;143.37;;;128.30;;
16804;SDS011;8520;50.102;20.010;2024-02-28T19:45:38;145.27;;;130.13;;
16804;SDS011;8520;50.102;20.010;2024-02-28T19:48:07;144.03;;;128.93;;
16804;SDS011;8520;50.102;20.010;2024-02-28T19:50:35;146.03;;;130.73;;
16804;SDS011;8520;50.102;20.010;2024-02-28T19:53:04;144.63;;;129.53;;
16804;SDS011;8520;50.102;20.010;2024-02-28T19:55:32;145.30;;;130.03;;
16804;SDS011;8520;50.102;20.010;2024-02-28T19:58:01;146.50;;;130.90;;
16804;SDS011;8520;50.102;20.010;2024-02-28T20:00:29;147.83;;;132.43;;
16804;SDS011;8520;50.102;20.010;2024-02-28T20:02:58;145.37;;;129.83;;
16804;SDS011;8520;50.102;20.010;2024-02-28T20:05:26;150.57;;;135.17;;
16804;SDS011;8520;50.102;20.010;2024-02-28T20:07:53;149.53;;;133.70;;
16804;SDS011;8520;50.102;20.010;2024-02-28T20:10:23;148.07;;;132.63;;
16804;SDS011;8520;50.102;20.010;2024-02-28T20:12:51;146.30;;;130.83;;
16804;SDS011;8520;50.102;20.010;2024-02-28T20:15:21;148.40;;;132.90;;
16804;SDS011;8520;50.102;20.010;2024-02-28T20:17:50;148.60;;;133.27;;
16804;SDS011;8520;50.102;20.010;2024-02-28T20:20:20;148.73;;;132.97;;
16804;SDS011;8520;50.102;20.010;2024-02-28T20:22:49;151.73;;;135.90;;
16804;SDS011;8520;50.102;20.010;2024-02-28T20:25:17;149.40;;;133.50;;
16804;SDS011;8520;50.102;20.010;2024-02-28T20:27:46;150.03;;;134.30;;
16804;SDS011;8520;50.102;20.010;2024-02-28T20:30:14;148.73;;;133.27;;
16804;SDS011;8520;50.102;20.010;2024-02-28T20:32:43;147.63;;;131.93;;
16804;SDS011;8520;50.102;20.010;2024-02-28T20:35:11;148.73;;;132.80;;
16804;SDS011;8520;50.102;20.010;2024-02-28T20:37:39;149.40;;;133.53;;
16804;SDS011;8520;50.102;20.010;2024-02-28T20:40:08;147.90;;;132.33;;
16804;SDS011;8520;50.102;20.010;2024-02-28T20:42:40;143.40;;;128.43;;
16804;SDS011;8520;50.102;20.010;2024-02-28T20:45:09;148.17;;;132.10;;
16804;SDS011;8520;50.102;20.010;2024-02-28T20:47:37;145.57;;;130.40;;
16804;SDS011;8520;50.102;20.010;2024-02-28T20:50:06;147.00;;;131.50;;
16804;SDS011;8520;50.102;20.010;2024-02-28T20:52:34;145.73;;;130.63;;
16804;SDS011;8520;50.102;20.010;2024-02-28T20:55:02;150.33;;;133.97;;
16804;SDS011;8520;50.102;20.010;2024-02-28T20:57:31;148.20;;;132.13;;
16804;SDS011;8520;50.102;20.010;2024-02-28T20:59:59;148.17;;;132.43;;
16804;SDS011;8520;50.102;20.010;2024-02-28T21:02:29;147.90;;;132.23;;
16804;SDS011;8520;50.102;20.010;2024-02-28T21:04:58;146.73;;;131.37;;
16804;SDS011;8520;50.102;20.010;2024-02-28T21:07:26;146.03;;;131.03;;
16804;SDS011;8520;50.102;20.010;2024-02-28T21:10:13;150.17;;;134.10;;
16804;SDS011;8520;50.102;20.010;2024-02-28T21:12:44;147.90;;;132.20;;
16804;SDS011;8520;50.102;20.010;2024-02-28T21:15:21;149.30;;;133.70;;
16804;SDS011;8520;50.102;20.010;2024-02-28T21:17:54;151.03;;;135.10;;
16804;SDS011;8520;50.102;20.010;2024-02-28T21:20:27;155.97;;;139.33;;
16804;SDS011;8520;50.102;20.010;2024-02-28T21:23:00;157.17;;;140.07;;
16804;SDS011;8520;50.102;20.010;2024-02-28T21:25:49;158.20;;;140.97;;
16804;SDS011;8520;50.102;20.010;2024-02-28T21:28:25;151.93;;;135.93;;
16804;SDS011;8520;50.102;20.010;2024-02-28T21:31:03;163.33;;;134.10;;
16804;SDS011;8520;50.102;20.010;2024-02-28T21:33:42;164.80;;;133.73;;
16804;SDS011;8520;50.102;20.010;2024-02-28T21:36:10;154.87;;;129.23;;
16804;SDS011;8520;50.102;20.010;2024-02-28T21:38:38;150.37;;;127.40;;
16804;SDS011;8520;50.102;20.010;2024-02-28T21:41:06;150.17;;;123.80;;
16804;SDS011;8520;50.102;20.010;2024-02-28T21:43:34;149.30;;;122.93;;
16804;SDS011;8520;50.102;20.010;2024-02-28T21:46:02;147.73;;;124.17;;
16804;SDS011;8520;50.102;20.010;2024-02-28T21:48:30;136.13;;;119.00;;
16804;SDS011;8520;50.102;20.010;2024-02-28T21:51:00;128.80;;;114.70;;
16804;SDS011;8520;50.102;20.010;2024-02-28T21:53:28;129.03;;;114.27;;
16804;SDS011;8520;50.102;20.010;2024-02-28T21:55:56;127.87;;;112.57;;
16804;SDS011;8520;50.102;20.010;2024-02-28T21:58:24;125.70;;;111.57;;
16804;SDS011;8520;50.102;20.010;2024-02-28T22:00:52;122.03;;;108.73;;
16804;SDS011;8520;50.102;20.010;2024-02-28T22:03:20;120.77;;;108.13;;
16804;SDS011;8520;50.102;20.010;2024-02-28T22:05:48;118.70;;;106.40;;
16804;SDS011;8520;50.102;20.010;2024-02-28T22:08:17;117.83;;;106.30;;
16804;SDS011;8520;50.102;20.010;2024-02-28T22:10:45;119.87;;;106.77;;
16804;SDS011;8520;50.102;20.010;2024-02-28T22:13:14;117.43;;;104.70;;
16804;SDS011;8520;50.102;20.010;2024-02-28T22:15:42;117.07;;;104.27;;
16804;SDS011;8520;50.102;20.010;2024-02-28T22:18:10;116.40;;;104.27;;
16804;SDS011;8520;50.102;20.010;2024-02-28T22:20:38;112.17;;;101.17;;
16804;SDS011;8520;50.102;20.010;2024-02-28T22:23:07;111.03;;;99.30;;
16804;SDS011;8520;50.102;20.010;2024-02-28T22:25:37;111.23;;;99.53;;
16804;SDS011;8520;50.102;20.010;2024-02-28T22:28:05;111.57;;;100.03;;
16804;SDS011;8520;50.102;20.010;2024-02-28T22:30:33;109.23;;;98.13;;
16804;SDS011;8520;50.102;20.010;2024-02-28T22:33:01;110.90;;;99.73;;
16804;SDS011;8520;50.102;20.010;2024-02-28T22:35:30;108.17;;;97.60;;
16804;SDS011;8520;50.102;20.010;2024-02-28T22:37:58;109.03;;;97.67;;
16804;SDS011;8520;50.102;20.010;2024-02-28T22:40:26;103.87;;;93.63;;
16804;SDS011;8520;50.102;20.010;2024-02-28T22:42:55;103.20;;;92.83;;
16804;SDS011;8520;50.102;20.010;2024-02-28T22:45:23;102.23;;;91.67;;
16804;SDS011;8520;50.102;20.010;2024-02-28T22:47:51;100.07;;;90.23;;
16804;SDS011;8520;50.102;20.010;2024-02-28T22:50:20;98.47;;;89.20;;
16804;SDS011;8520;50.102;20.010;2024-02-28T22:52:47;93.50;;;84.60;;
16804;SDS011;8520;50.102;20.010;2024-02-28T22:55:16;92.30;;;83.83;;
16804;SDS011;8520;50.102;20.010;2024-02-28T22:57:47;94.60;;;85.90;;
16804;SDS011;8520;50.102;20.010;2024-02-28T23:00:16;93.90;;;85.20;;
16804;SDS011;8520;50.102;20.010;2024-02-28T23:02:56;92.27;;;83.87;;
16804;SDS011;8520;50.102;20.010;2024-02-28T23:05:25;93.13;;;84.93;;
16804;SDS011;8520;50.102;20.010;2024-02-28T23:07:53;89.90;;;81.90;;
16804;SDS011;8520;50.102;20.010;2024-02-28T23:10:21;88.47;;;80.53;;
16804;SDS011;8520;50.102;20.010;2024-02-28T23:12:50;86.73;;;79.23;;
16804;SDS011;8520;50.102;20.010;2024-02-28T23:15:19;89.77;;;81.87;;
16804;SDS011;8520;50.102;20.010;2024-02-28T23:17:48;87.27;;;79.80;;
16804;SDS011;8520;50.102;20.010;2024-02-28T23:20:21;87.30;;;79.70;;
16804;SDS011;8520;50.102;20.010;2024-02-28T23:22:49;86.60;;;79.10;;
16804;SDS011;8520;50.102;20.010;2024-02-28T23:25:17;88.53;;;80.83;;
16804;SDS011;8520;50.102;20.010;2024-02-28T23:27:46;86.07;;;78.97;;
16804;SDS011;8520;50.102;20.010;2024-02-28T23:30:14;87.80;;;80.17;;
16804;SDS011;8520;50.102;20.010;2024-02-28T23:32:43;85.10;;;78.10;;
16804;SDS011;8520;50.102;20.010;2024-02-28T23:35:11;84.70;;;77.80;;
16804;SDS011;8520;50.102;20.010;2024-02-28T23:37:39;81.70;;;75.07;;
16804;SDS011;8520;50.102;20.010;2024-02-28T23:40:08;80.20;;;73.27;;
16804;SDS011;8520;50.102;20.010;2024-02-28T23:42:36;79.73;;;73.20;;
16804;SDS011;8520;50.102;20.010;2024-02-28T23:45:04;80.30;;;73.60;;
16804;SDS011;8520;50.102;20.010;2024-02-28T23:47:33;81.03;;;74.13;;
16804;SDS011;8520;50.102;20.010;2024-02-28T23:50:02;78.47;;;71.80;;
16804;SDS011;8520;50.102;20.010;2024-02-28T23:52:30;78.90;;;72.23;;
16804;SDS011;8520;50.102;20.010;2024-02-28T23:54:58;80.53;;;73.53;;
16804;SDS011;8520;50.102;20.010;2024-02-28T23:57:26;79.30;;;72.63;;
16804;SDS011;8520;50.102;20.010;2024-02-28T23:59:54;82.93;;;75.47;;
